Jayton, Texas
Current Conditions -  °F | °C
As of 12:15 AM on Monday 22 Dec 2014 (Local Time) from KSNK Reporting Station
Clear Clear  
Wind Chill: 55°   Ceiling: Unl
Heat Index: 55°   Visibility: 10mi
Dew Point: 30°   Wind: 15mph
Humidity: 39%   Direction: 240°WSW
Pressure: 29.65"   Gusts: NA
Location:  33.25°N, 100.57°W
Report Text: KSNK 220615Z AUTO 24013KT 10SM CLR 13/M01 A2965 RMK AO2 T01281010
Loading
Personal Weather Stations






























Interactive Weather Map New forecast layout! Learn more

10-Day Weather Forecast

Advertisements
Track Severe Weather on mobile